Time;durP1;ratioP1;P1;durP2;ratioP2;P2;SDS_P1;SDS_P2;PMS_P1;PMS_P2;Temp;Humidity;BMP_temperature;BMP_pressure;BME280_temperature;BME280_humidity;BME280_pressure;Samples;Min_cycle;Max_cycle;Signal;HPM_P1;HPM_P2
2023/12/23 00:00:24;;;;;;;;;;;;;;;;;;;;;
2023/12/23 00:03:00;;;;;;;;;;;;;;;;;;;;;
2023/12/23 00:05:46;;;;;;;1.17;1.05;;;;;;;9.11;nan;99502.00;4932630;28;20382;-90
2023/12/23 00:08:32;;;;;;;2.85;0.88;;;;;;;9.12;nan;99511.53;4960464;28;20200;-92
2023/12/23 00:11:14;;;;;;;1.25;0.70;;;;;;;9.11;nan;99515.09;4948187;28;20208;-90
2023/12/23 00:13:44;;;;;;;1.42;0.80;;;;;;;9.13;nan;99508.84;4948885;28;20216;-90
2023/12/23 00:16:27;;;;;;;1.00;0.85;;;;;;;9.15;nan;99506.13;4923531;28;20201;-91
2023/12/23 00:19:22;;;;;;;1.30;0.90;;;;;;;9.15;nan;99504.34;4944933;28;20212;-91
2023/12/23 00:22:03;;;;;;;0.90;0.88;;;;;;;9.14;nan;99505.28;4940408;28;20350;-91
2023/12/23 00:24:48;;;;;;;0.95;0.85;;;;;;;9.15;nan;99503.50;4930002;28;20377;-91
2023/12/23 00:27:20;;;;;;;1.13;0.57;;;;;;;9.17;nan;99506.88;4944212;28;20201;-91
2023/12/23 00:30:19;;;;;;;;;;;;;;;;;;;;;
2023/12/23 00:32:55;;;;;;;;;;;;;;;;;;;;;
2023/12/23 00:35:41;;;;;;;2.05;0.80;;;;;;;9.13;nan;99510.59;4941739;28;20192;-92
2023/12/23 00:38:17;;;;;;;2.25;0.98;;;;;;;9.14;nan;99505.28;4922819;28;20609;-90
2023/12/23 00:41:24;;;;;;;;;;;;;;;;;;;;;
2023/12/23 00:44:42;;;;;;;0.80;0.60;;;;;;;9.11;nan;99515.09;4923813;28;20773;-92
2023/12/23 00:47:15;;;;;;;1.70;0.80;;;;;;;9.12;nan;99516.78;4943783;28;20278;-90
2023/12/23 00:49:48;;;;;;;1.47;0.63;;;;;;;9.15;nan;99519.22;4947273;28;20967;-91
2023/12/23 00:52:16;;;;;;;1.23;0.80;;;;;;;9.13;nan;99518.44;4919021;28;20444;-91
2023/12/23 00:55:03;;;;;;;;;;;;;;;;;;;;;
2023/12/23 00:57:34;;;;;;;1.13;0.80;;;;;;;9.13;nan;99519.31;4961703;28;20267;-90
2023/12/23 01:00:09;;;;;;;1.50;0.60;;;;;;;9.11;nan;99523.81;4975074;28;20222;-91
2023/12/23 01:02:53;;;;;;;1.77;0.60;;;;;;;9.09;nan;99518.63;4968990;28;20275;-91
2023/12/23 01:05:21;;;;;;;0.80;0.70;;;;;;;9.14;nan;99517.53;4952537;28;20254;-91
2023/12/23 01:08:15;;;;;;;0.70;0.60;;;;;;;9.11;nan;99512.50;4962731;28;20275;-91
2023/12/23 01:10:43;;;;;;;1.60;1.15;;;;;;;9.13;nan;99513.22;4961300;28;21014;-90
2023/12/23 01:13:09;;;;;;;1.63;0.83;;;;;;;9.16;nan;99520.91;4931127;28;20204;-92
2023/12/23 01:15:56;;;;;;;;;;;;;;;;;;;;;
2023/12/23 01:18:30;;;;;;;0.80;0.80;;;;;;;9.15;nan;99529.69;4955720;28;20229;-91
2023/12/23 01:20:58;;;;;;;1.42;0.70;;;;;;;9.15;nan;99542.81;4944127;28;20744;-91
2023/12/23 01:23:29;;;;;;;0.80;0.60;;;;;;;9.15;nan;99538.41;4957614;28;20203;-91
2023/12/23 01:26:20;;;;;;;;;;;;;;;;;;;;;
2023/12/23 01:29:03;;;;;;;;;;;;;;;;;;;;;
2023/12/23 01:31:32;;;;;;;1.00;0.80;;;;;;;9.15;nan;99542.81;4957219;28;20589;-91
2023/12/23 01:34:00;;;;;;;1.50;0.93;;;;;;;9.15;nan;99553.28;4971831;28;20204;-91
2023/12/23 01:36:36;;;;;;;;;;;;;;;;;;;;;
2023/12/23 01:39:11;;;;;;;2.43;0.70;;;;;;;9.17;nan;99554.88;4953197;28;20495;-92
2023/12/23 01:41:49;;;;;;;1.55;0.75;;;;;;;9.20;nan;99567.81;4944150;28;20937;-90
2023/12/23 01:44:30;;;;;;;1.58;0.90;;;;;;;9.20;nan;99582.69;4945314;28;20227;-91
2023/12/23 01:47:05;;;;;;;1.17;0.80;;;;;;;9.19;nan;99575.78;4943846;28;20211;-91
2023/12/23 01:49:38;;;;;;;1.33;0.98;;;;;;;9.18;nan;99584.53;4957658;28;20520;-91
2023/12/23 01:52:16;;;;;;;1.50;0.88;;;;;;;9.16;nan;99584.66;4956535;28;20382;-91
2023/12/23 01:54:57;;;;;;;;;;;;;;;;;;;;;
2023/12/23 01:57:35;;;;;;;1.23;1.13;;;;;;;9.17;nan;99573.22;4944756;28;20212;-91
2023/12/23 02:00:24;;;;;;;1.65;1.00;;;;;;;9.17;nan;99577.63;4962022;28;20223;-92
2023/12/23 02:03:03;;;;;;;1.05;0.55;;;;;;;9.16;nan;99571.56;4962466;28;20195;-91
2023/12/23 02:06:02;;;;;;;;;;;;;;;;;;;;;
2023/12/23 02:08:44;;;;;;;0.60;0.60;;;;;;;9.16;nan;99576.78;4957555;28;20214;-92
2023/12/23 02:12:06;;;;;;;3.10;1.00;;;;;;;9.16;nan;99581.19;4946043;28;20882;-91
2023/12/23 02:15:10;;;;;;;;;;;;;;;;;;;;;
2023/12/23 02:17:43;;;;;;;1.00;0.80;;;;;;;9.18;nan;99574.06;4955061;28;20262;-91
2023/12/23 02:20:44;;;;;;;2.97;0.75;;;;;;;9.14;nan;99565.53;4963178;28;20291;-92
2023/12/23 02:23:19;;;;;;;2.75;0.60;;;;;;;9.15;nan;99576.88;4959250;28;20204;-91
2023/12/23 02:25:59;;;;;;;2.00;0.90;;;;;;;9.16;nan;99575.94;4951424;28;20208;-90
2023/12/23 02:28:51;;;;;;;;;;;;;;;;;;;;;
2023/12/23 02:31:54;;;;;;;1.50;0.63;;;;;;;9.14;nan;99576.03;4942354;28;20428;-92
2023/12/23 02:34:34;;;;;;;;;;;;;;;;;;;;;
2023/12/23 02:37:14;;;;;;;1.63;0.90;;;;;;;9.16;nan;99565.47;4957633;28;20195;-91
2023/12/23 02:39:50;;;;;;;0.80;0.70;;;;;;;9.18;nan;99571.44;4959788;28;20191;-90
2023/12/23 02:42:44;;;;;;;2.05;0.93;;;;;;;9.16;nan;99574.16;4961998;28;20195;-91
2023/12/23 02:45:12;;;;;;;0.80;0.65;;;;;;;9.18;nan;99576.69;4955918;28;20342;-89
2023/12/23 02:48:02;;;;;;;;;;;;;;;;;;;;;
2023/12/23 02:50:41;;;;;;;0.60;0.50;;;;;;;9.18;nan;99574.06;4956444;28;20246;-91
2023/12/23 02:53:40;;;;;;;0.90;0.70;;;;;;;9.19;nan;99566.13;4946496;28;20234;-90
2023/12/23 02:56:21;;;;;;;2.47;0.70;;;;;;;9.16;nan;99571.56;4956074;28;20215;-91
2023/12/23 02:58:47;;;;;;;0.90;0.73;;;;;;;9.16;nan;99575.94;4949651;28;20367;-91
2023/12/23 03:01:25;;;;;;;0.90;0.70;;;;;;;9.15;nan;99582.09;4939349;28;20633;-90
2023/12/23 03:04:09;;;;;;;3.17;0.90;;;;;;;9.15;nan;99579.50;4938702;28;20204;-90
2023/12/23 03:06:42;;;;;;;1.98;0.80;;;;;;;9.16;nan;99586.44;4944259;28;20197;-90
2023/12/23 03:09:18;;;;;;;;;;;;;;;;;;;;;
2023/12/23 03:11:52;;;;;;;2.50;0.80;;;;;;;9.14;nan;99585.66;4939224;28;20212;-91
2023/12/23 03:14:45;;;;;;;2.65;0.75;;;;;;;9.13;nan;99576.09;4949458;28;20213;-90
2023/12/23 03:17:13;;;;;;;0.73;0.70;;;;;;;9.10;nan;99585.00;4949228;28;20213;-90
2023/12/23 03:20:02;;;;;;;1.85;0.68;;;;;;;9.11;nan;99589.31;4945107;28;20720;-91
2023/12/23 03:22:48;;;;;;;1.85;0.57;;;;;;;9.12;nan;99585.75;4954917;28;21077;-90
2023/12/23 03:25:29;;;;;;;0.95;0.70;;;;;;;9.11;nan;99583.22;4962082;28;20448;-90
2023/12/23 03:28:05;;;;;;;;;;;;;;;;;;;;;
2023/12/23 03:30:40;;;;;;;0.80;0.80;;;;;;;9.16;nan;99602.16;4943505;28;20624;-90
2023/12/23 03:33:16;;;;;;;1.40;0.70;;;;;;;9.15;nan;99587.34;4946522;28;20291;-91
2023/12/23 03:35:45;;;;;;;1.00;0.70;;;;;;;9.13;nan;99587.44;4947310;28;20196;-91
2023/12/23 03:38:21;;;;;;;0.70;0.67;;;;;;;9.12;nan;99577.03;4944622;28;20219;-90
2023/12/23 03:41:05;;;;;;;1.35;1.23;;;;;;;9.14;nan;99578.66;4956903;28;20616;-90
2023/12/23 03:43:41;;;;;;;1.38;0.77;;;;;;;9.13;nan;99574.34;4943371;28;20208;-91
2023/12/23 03:46:10;;;;;;;0.70;0.50;;;;;;;9.12;nan;99574.44;4944204;28;20251;-90
2023/12/23 03:48:40;;;;;;;2.60;0.83;;;;;;;9.13;nan;99569.09;4942722;28;20701;-91
2023/12/23 03:51:17;;;;;;;1.15;0.60;;;;;;;9.12;nan;99571.81;4945859;28;20625;-90
2023/12/23 03:54:05;;;;;;;1.20;0.57;;;;;;;9.12;nan;99580.50;4943745;28;21281;-91
2023/12/23 03:57:00;;;;;;;0.70;0.50;;;;;;;9.13;nan;99587.44;4944417;28;20227;-91
2023/12/23 03:59:35;;;;;;;1.60;0.70;;;;;;;9.08;nan;99589.50;4945845;28;20228;-90
2023/12/23 04:02:24;;;;;;;0.60;0.50;;;;;;;9.07;nan;99586.03;4949649;28;20208;-91
2023/12/23 04:04:57;;;;;;;0.95;0.60;;;;;;;9.07;nan;99583.41;4950170;28;20207;-90
2023/12/23 04:07:25;;;;;;;1.08;0.60;;;;;;;9.08;nan;99586.88;4951059;28;20441;-91
2023/12/23 04:10:13;;;;;;;0.75;0.75;;;;;;;9.09;nan;99576.28;4937370;28;20199;-91
2023/12/23 04:12:55;;;;;;;1.33;0.63;;;;;;;9.09;nan;99575.44;4967046;28;20275;-91
2023/12/23 04:15:45;;;;;;;0.60;0.50;;;;;;;9.07;nan;99575.56;4950352;28;20383;-91
2023/12/23 04:18:11;;;;;;;2.25;0.70;;;;;;;9.06;nan;99571.22;4947342;28;20221;-91
2023/12/23 04:20:39;;;;;;;1.00;0.83;;;;;;;9.10;nan;99571.91;4945311;28;20934;-91
2023/12/23 04:23:07;;;;;;;0.70;0.50;;;;;;;9.09;nan;99568.44;4951263;28;20195;-90
2023/12/23 04:25:42;;;;;;;0.88;0.60;;;;;;;9.09;nan;99571.03;4941904;28;20207;-91
2023/12/23 04:28:20;;;;;;;0.60;0.60;;;;;;;9.09;nan;99560.56;4946016;28;20193;-91
2023/12/23 04:31:06;;;;;;;0.80;0.60;;;;;;;9.08;nan;99558.88;4928672;28;20210;-90
2023/12/23 04:33:43;;;;;;;1.27;0.60;;;;;;;9.09;nan;99557.94;4942625;28;20208;-90
2023/12/23 04:36:17;;;;;;;1.02;0.75;;;;;;;9.08;nan;99553.66;4942103;28;20230;-90
2023/12/23 04:38:47;;;;;;;0.88;0.70;;;;;;;9.10;nan;99553.56;4946006;28;20444;-91
2023/12/23 04:41:23;;;;;;;0.70;0.50;;;;;;;9.11;nan;99544.78;4958465;28;20612;-91
2023/12/23 04:43:51;;;;;;;0.73;0.63;;;;;;;9.12;nan;99546.44;4941968;28;20776;-91
2023/12/23 04:46:50;;;;;;;;;;;;;;;;;;;;;
2023/12/23 04:49:17;;;;;;;0.70;0.60;;;;;;;9.12;nan;99550.84;4954229;28;21039;-90
2023/12/23 04:51:45;;;;;;;3.90;0.60;;;;;;;9.11;nan;99559.66;4942980;28;20212;-91
2023/12/23 04:54:34;;;;;;;;;;;;;;;;;;;;;
2023/12/23 04:57:21;;;;;;;0.60;0.60;;;;;;;9.12;nan;99561.31;4945489;28;20203;-90
2023/12/23 05:00:07;;;;;;;;;;;;;;;;;;;;;
2023/12/23 05:02:51;;;;;;;0.80;0.60;;;;;;;9.11;nan;99552.63;4966877;28;20216;-91
2023/12/23 05:05:19;;;;;;;0.60;0.50;;;;;;;9.10;nan;99548.34;4954623;28;20195;-90
2023/12/23 05:07:46;;;;;;;1.80;0.70;;;;;;;9.08;nan;99556.28;4935203;28;20202;-91
2023/12/23 05:10:15;;;;;;;0.75;0.57;;;;;;;9.09;nan;99562.34;4959436;28;20200;-90
2023/12/23 05:12:49;;;;;;;1.20;0.65;;;;;;;9.09;nan;99542.22;4961159;28;20195;-91
2023/12/23 05:15:25;;;;;;;0.82;0.70;;;;;;;9.09;nan;99539.59;4946946;28;20234;-90
2023/12/23 05:17:50;;;;;;;0.70;0.50;;;;;;;9.08;nan;99530.06;4967684;28;20203;-91
2023/12/23 05:20:19;;;;;;;0.80;0.70;;;;;;;9.06;nan;99528.47;4949468;28;20730;-91
2023/12/23 05:23:10;;;;;;;0.60;0.60;;;;;;;9.07;nan;99530.13;4934710;28;20465;-90
2023/12/23 05:26:13;;;;;;;0.60;0.50;;;;;;;9.08;nan;99532.69;4966742;28;20205;-92
2023/12/23 05:29:27;;;;;;;1.58;0.70;;;;;;;9.07;nan;99538.00;4945837;28;20482;-91
2023/12/23 05:32:14;;;;;;;;;;;;;;;;;;;;;
2023/12/23 05:34:53;;;;;;;1.50;0.80;;;;;;;9.06;nan;99523.22;4971599;28;20207;-91
2023/12/23 05:37:23;;;;;;;0.80;0.80;;;;;;;9.03;nan;99523.41;4976697;28;20497;-90
2023/12/23 05:40:05;;;;;;;0.70;0.60;;;;;;;9.06;nan;99525.84;4981752;28;20765;-90
2023/12/23 05:43:06;;;;;;;0.90;0.80;;;;;;;9.09;nan;99528.28;4983863;28;20208;-91
2023/12/23 05:45:50;;;;;;;0.60;0.50;;;;;;;9.09;nan;99529.13;4982179;28;20202;-90
2023/12/23 05:48:27;;;;;;;0.60;0.50;;;;;;;9.06;nan;99537.16;4986441;28;20195;-91
2023/12/23 05:51:41;;;;;;;4.70;0.95;;;;;;;9.09;nan;99547.47;4989703;28;20203;-91
2023/12/23 05:54:11;;;;;;;0.90;0.68;;;;;;;9.09;nan;99544.84;4982627;28;20216;-92
2023/12/23 05:56:51;;;;;;;0.80;0.60;;;;;;;9.10;nan;99545.72;4972149;28;20188;-90
2023/12/23 05:59:46;;;;;;;0.73;0.60;;;;;;;9.11;nan;99543.94;4967915;28;20227;-91
2023/12/23 06:02:20;;;;;;;0.80;0.60;;;;;;;9.11;nan;99547.38;4965322;28;20204;-91
2023/12/23 06:04:52;;;;;;;2.00;0.68;;;;;;;9.11;nan;99551.78;4962581;28;20263;-91
2023/12/23 06:07:30;;;;;;;0.87;0.60;;;;;;;9.11;nan;99546.56;4961580;28;21446;-91
2023/12/23 06:10:01;;;;;;;0.60;0.50;;;;;;;9.12;nan;99543.81;4971495;28;20466;-91
2023/12/23 06:13:11;;;;;;;1.75;1.15;;;;;;;9.13;nan;99545.53;4964571;28;20216;-91
2023/12/23 06:15:44;;;;;;;1.13;0.95;;;;;;;9.13;nan;99560.38;4949650;28;20223;-91
2023/12/23 06:18:19;;;;;;;2.45;1.08;;;;;;;9.16;nan;99553.22;4950061;28;20212;-91
2023/12/23 06:20:57;;;;;;;1.20;1.00;;;;;;;9.18;nan;99553.09;4950752;28;20213;-91
2023/12/23 06:23:36;;;;;;;0.60;0.60;;;;;;;9.20;nan;99551.25;4954790;28;20196;-92
2023/12/23 06:26:48;;;;;;;2.92;0.80;;;;;;;9.20;nan;99530.28;4952891;28;20200;-90
2023/12/23 06:29:31;;;;;;;1.17;0.70;;;;;;;9.18;nan;99537.38;4956803;28;20196;-91
2023/12/23 06:32:01;;;;;;;0.60;0.60;;;;;;;9.13;nan;99542.91;4949156;28;20207;-91
2023/12/23 06:34:41;;;;;;;0.90;0.80;;;;;;;9.17;nan;99535.69;4956757;28;21233;-91
2023/12/23 06:37:14;;;;;;;0.75;0.57;;;;;;;9.21;nan;99530.19;4947714;28;20202;-90
2023/12/23 06:40:06;;;;;;;;;;;;;;;;;;;;;
2023/12/23 06:42:52;;;;;;;0.63;0.60;;;;;;;9.20;nan;99525.03;4961295;28;20197;-91
2023/12/23 06:45:49;;;;;;;;;;;;;;;;;;;;;
2023/12/23 06:48:25;;;;;;;0.93;0.70;;;;;;;9.19;nan;99524.19;4964843;28;20303;-92
2023/12/23 06:51:09;;;;;;;0.90;0.60;;;;;;;9.16;nan;99515.69;4951349;28;20199;-90
2023/12/23 06:54:49;;;;;;;0.60;0.52;;;;;;;9.18;nan;99517.28;4941491;28;20318;-92
2023/12/23 06:57:52;;;;;;;;;;;;;;;;;;;;;
2023/12/23 07:00:52;;;;;;;;;;;;;;;;;;;;;
2023/12/23 07:06:35;;;;;;;1.95;0.80;;;;;;;9.21;nan;99542.47;4943569;28;20271;-84
2023/12/23 07:09:00;;;;;;;1.00;0.70;;;;;;;9.22;nan;99533.66;4936782;28;20446;-83
2023/12/23 07:11:26;;;;;;;0.80;0.77;;;;;;;9.21;nan;99545.91;4953784;28;20298;-84
2023/12/23 07:13:52;;;;;;;0.70;0.60;;;;;;;9.20;nan;99553.84;4956832;28;20197;-83
2023/12/23 07:18:55;;;;;;;0.60;0.55;;;;;;;9.18;nan;99548.72;4929691;28;20713;-77
2023/12/23 07:21:20;;;;;;;1.20;0.77;;;;;;;9.19;nan;99552.19;4937973;28;20288;-78
2023/12/23 07:23:46;;;;;;;0.80;0.60;;;;;;;9.18;nan;99553.09;4958277;28;20263;-79
2023/12/23 07:26:13;;;;;;;0.90;0.57;;;;;;;9.19;nan;99550.41;4958011;28;20187;-78
2023/12/23 07:28:39;;;;;;;0.80;0.75;;;;;;;9.24;nan;99563.25;4951927;28;20497;-77
2023/12/23 07:31:05;;;;;;;1.00;0.70;;;;;;;9.22;nan;99555.47;4951028;28;20287;-78
2023/12/23 07:33:30;;;;;;;0.60;0.50;;;;;;;9.20;nan;99556.47;4947918;28;20204;-77
2023/12/23 07:35:57;;;;;;;2.60;0.70;;;;;;;9.19;nan;99560.03;4947957;28;20235;-79
2023/12/23 07:38:22;;;;;;;0.70;0.60;;;;;;;9.19;nan;99547.78;4950466;28;20204;-80
2023/12/23 07:40:48;;;;;;;1.25;0.60;;;;;;;9.15;nan;99564.59;4949929;28;20208;-77
2023/12/23 07:43:14;;;;;;;1.07;0.70;;;;;;;9.20;nan;99559.09;4936758;28;20196;-79
2023/12/23 07:45:42;;;;;;;0.98;0.60;;;;;;;9.22;nan;99565.09;4940592;28;20280;-78
2023/12/23 07:48:07;;;;;;;0.90;0.80;;;;;;;9.20;nan;99572.19;4952518;28;20251;-79
2023/12/23 07:50:33;;;;;;;0.90;0.70;;;;;;;9.21;nan;99584.41;4948653;28;20220;-79
2023/12/23 07:53:01;;;;;;;1.00;0.80;;;;;;;9.22;nan;99579.03;4953565;28;20747;-76
2023/12/23 07:55:26;;;;;;;0.80;0.60;;;;;;;9.23;nan;99579.88;4952237;28;20200;-78
2023/12/23 07:57:52;;;;;;;2.77;2.57;;;;;;;9.24;nan;99585.03;4953567;28;20218;-76
2023/12/23 08:00:18;;;;;;;1.70;0.97;;;;;;;9.26;nan;99598.03;4951210;28;20267;-77
2023/12/23 08:02:43;;;;;;;18.53;10.60;;;;;;;9.28;nan;99590.94;4952660;28;20467;-79
2023/12/23 08:05:08;;;;;;;16.37;10.87;;;;;;;9.27;nan;99602.38;4946699;28;20200;-77
2023/12/23 08:07:34;;;;;;;1.20;1.10;;;;;;;9.27;nan;99611.06;4944605;28;20188;-78
2023/12/23 08:09:59;;;;;;;27.07;17.00;;;;;;;9.30;nan;99599.56;4943872;28;20637;-76
2023/12/23 08:12:25;;;;;;;5.87;4.93;;;;;;;9.32;nan;99602.94;4945337;28;20201;-79
2023/12/23 08:14:50;;;;;;;4.23;2.17;;;;;;;9.34;nan;99608.09;4953365;28;20477;-78
2023/12/23 08:17:15;;;;;;;4.73;4.30;;;;;;;9.36;nan;99612.31;4952123;28;20224;-79
2023/12/23 08:19:41;;;;;;;3.60;3.30;;;;;;;9.36;nan;99608.84;4950203;28;21259;-78
2023/12/23 08:22:06;;;;;;;2.47;2.27;;;;;;;9.35;nan;99612.41;4951806;28;20204;-78
2023/12/23 08:24:33;;;;;;;2.00;1.90;;;;;;;9.33;nan;99625.59;4953179;28;20323;-79
2023/12/23 08:26:59;;;;;;;1.35;0.90;;;;;;;9.36;nan;99624.56;4953975;28;20577;-77
2023/12/23 08:29:25;;;;;;;1.13;1.00;;;;;;;9.33;nan;99625.59;4951506;28;20232;-79
2023/12/23 08:31:51;;;;;;;1.40;1.13;;;;;;;9.36;nan;99619.34;4953045;28;20303;-77
2023/12/23 08:34:17;;;;;;;1.07;0.60;;;;;;;9.37;nan;99624.50;4950508;28;20211;-79
2023/12/23 08:36:42;;;;;;;1.07;0.93;;;;;;;9.35;nan;99628.16;4949530;28;20854;-79
2023/12/23 08:39:08;;;;;;;1.00;0.80;;;;;;;9.35;nan;99641.25;4951864;28;20503;-79
2023/12/23 08:41:35;;;;;;;1.58;1.48;;;;;;;9.35;nan;99644.72;4951555;28;20248;-78
2023/12/23 08:44:02;;;;;;;4.43;1.80;;;;;;;9.40;nan;99642.66;4953420;28;20276;-77
2023/12/23 08:46:28;;;;;;;1.35;1.23;;;;;;;9.38;nan;99652.38;4937865;28;20220;-77
2023/12/23 08:48:54;;;;;;;1.42;1.00;;;;;;;9.37;nan;99650.72;4950234;28;22485;-79
2023/12/23 08:51:19;;;;;;;2.70;1.50;;;;;;;9.38;nan;99657.63;4951199;28;20212;-78
2023/12/23 08:53:45;;;;;;;2.23;1.93;;;;;;;9.36;nan;99654.25;4952164;28;20199;-78
2023/12/23 08:56:10;;;;;;;1.10;0.80;;;;;;;9.40;nan;99653.16;4956546;28;20204;-76
2023/12/23 08:58:35;;;;;;;3.70;1.60;;;;;;;9.38;nan;99649.78;4952618;28;20244;-78
2023/12/23 09:01:01;;;;;;;1.90;1.13;;;;;;;9.41;nan;99643.50;4952217;28;20459;-76
2023/12/23 09:03:27;;;;;;;1.50;1.00;;;;;;;9.43;nan;99646.88;4954669;28;20600;-76
2023/12/23 09:05:53;;;;;;;1.30;1.02;;;;;;;9.46;nan;99642.31;4953232;28;20642;-77
2023/12/23 09:08:18;;;;;;;0.87;0.67;;;;;;;9.46;nan;99644.09;4956115;28;20247;-76
2023/12/23 09:10:44;;;;;;;0.70;0.63;;;;;;;9.46;nan;99637.06;4957028;28;20219;-80
2023/12/23 09:13:09;;;;;;;1.00;0.73;;;;;;;9.50;nan;99637.72;4952822;28;20995;-74
2023/12/23 09:15:35;;;;;;;1.17;0.77;;;;;;;9.51;nan;99632.41;4949334;28;20712;-78
2023/12/23 09:18:00;;;;;;;1.70;0.73;;;;;;;9.51;nan;99628.94;4951204;28;20228;-78
2023/12/23 09:20:27;;;;;;;1.03;0.70;;;;;;;9.52;nan;99647.19;4947243;28;20631;-78
2023/12/23 09:22:53;;;;;;;0.73;0.70;;;;;;;9.53;nan;99658.50;4944486;28;20683;-78
2023/12/23 09:25:18;;;;;;;1.03;0.60;;;;;;;9.50;nan;99654.31;4948529;28;20200;-78
2023/12/23 09:27:44;;;;;;;1.67;0.70;;;;;;;9.51;nan;99665.63;4950284;28;20825;-79
2023/12/23 09:30:10;;;;;;;1.40;0.80;;;;;;;9.55;nan;99672.38;4948570;28;20695;-78
2023/12/23 09:32:35;;;;;;;1.20;0.60;;;;;;;9.54;nan;99660.22;4950202;28;20200;-78
2023/12/23 09:35:00;;;;;;;1.53;1.10;;;;;;;9.50;nan;99659.56;4948816;28;20507;-77
2023/12/23 09:37:26;;;;;;;1.03;0.70;;;;;;;9.52;nan;99660.28;4947325;28;20214;-78
2023/12/23 09:39:51;;;;;;;1.10;0.80;;;;;;;9.54;nan;99660.22;4948773;28;20331;-77
2023/12/23 09:42:17;;;;;;;1.30;0.70;;;;;;;9.57;nan;99674.94;4961633;28;20863;-78
2023/12/23 09:44:43;;;;;;;1.20;1.10;;;;;;;9.58;nan;99679.22;4963380;28;20208;-78
2023/12/23 09:47:09;;;;;;;1.17;0.68;;;;;;;9.61;nan;99668.56;4963737;28;20217;-78
2023/12/23 09:49:36;;;;;;;1.17;0.70;;;;;;;9.61;nan;99676.41;4966413;28;20303;-78
2023/12/23 09:52:02;;;;;;;1.35;1.13;;;;;;;9.63;nan;99683.25;4977206;28;20235;-78
2023/12/23 09:54:32;;;;;;;1.15;0.63;;;;;;;9.67;nan;99689.19;4966784;28;20220;-78
2023/12/23 09:56:58;;;;;;;0.75;0.70;;;;;;;9.67;nan;99690.03;4965219;28;20208;-79
2023/12/23 09:59:24;;;;;;;2.38;1.25;;;;;;;9.70;nan;99678.53;4966311;28;20351;-78
2023/12/23 10:01:50;;;;;;;2.07;0.90;;;;;;;9.70;nan;99686.38;4963514;28;20287;-78
2023/12/23 10:04:15;;;;;;;1.00;0.73;;;;;;;9.71;nan;99673.16;4957089;28;20451;-79
2023/12/23 10:06:40;;;;;;;1.00;0.80;;;;;;;9.71;nan;99683.66;4957348;28;20643;-78
2023/12/23 10:09:17;;;;;;;0.80;0.60;;;;;;;9.73;nan;99694.06;4956779;28;20204;-79
2023/12/23 10:11:43;;;;;;;0.70;0.70;;;;;;;9.74;nan;99691.34;4951886;28;20743;-77
2023/12/23 10:14:08;;;;;;;1.10;0.70;;;;;;;9.74;nan;99701.84;4951836;28;20189;-77
2023/12/23 10:16:34;;;;;;;6.40;0.80;;;;;;;9.77;nan;99687.69;4955678;28;20326;-78
2023/12/23 10:19:00;;;;;;;0.60;0.50;;;;;;;9.80;nan;99700.63;4958066;28;20305;-75
2023/12/23 10:21:25;;;;;;;1.00;0.60;;;;;;;9.82;nan;99696.13;4959975;28;21139;-77
2023/12/23 10:23:53;;;;;;;2.07;0.70;;;;;;;9.86;nan;99700.28;4953894;28;20219;-78
2023/12/23 10:26:18;;;;;;;1.05;0.70;;;;;;;9.90;nan;99695.69;4957710;28;20601;-77
2023/12/23 10:28:48;;;;;;;0.70;0.60;;;;;;;9.91;nan;99692.13;4954705;28;20311;-78
2023/12/23 10:31:17;;;;;;;1.60;0.60;;;;;;;9.90;nan;99699.16;4956304;28;20248;-77
2023/12/23 10:33:50;;;;;;;0.98;0.68;;;;;;;9.88;nan;99687.94;4956161;28;21109;-78
2023/12/23 10:36:19;;;;;;;0.80;0.70;;;;;;;9.90;nan;99683.41;4938842;28;20583;-79
2023/12/23 10:38:51;;;;;;;1.92;0.77;;;;;;;9.90;nan;99672.06;4955683;28;20475;-77
2023/12/23 10:41:36;;;;;;;6.15;1.50;;;;;;;9.91;nan;99674.63;4954848;28;20204;-78
2023/12/23 10:44:03;;;;;;;6.68;5.00;;;;;;;9.87;nan;99670.47;4958551;28;20184;-78
2023/12/23 10:46:29;;;;;;;4.18;3.78;;;;;;;9.88;nan;99682.69;4958907;28;20705;-78
2023/12/23 10:48:55;;;;;;;1.75;1.60;;;;;;;9.88;nan;99677.44;4956130;28;20204;-78
2023/12/23 10:51:21;;;;;;;1.53;0.87;;;;;;;9.88;nan;99676.56;4958803;28;20208;-78
2023/12/23 10:53:50;;;;;;;1.98;0.88;;;;;;;9.88;nan;99687.94;4948050;28;20617;-80
2023/12/23 10:56:16;;;;;;;0.98;0.80;;;;;;;9.88;nan;99689.69;4952466;28;20220;-78
2023/12/23 10:58:42;;;;;;;0.70;0.60;;;;;;;9.85;nan;99695.97;4949175;28;20811;-77
2023/12/23 11:01:12;;;;;;;0.80;0.73;;;;;;;9.87;nan;99670.47;4947679;28;20995;-77
2023/12/23 11:03:38;;;;;;;1.58;0.70;;;;;;;9.85;nan;99668.88;4955122;28;20205;-77
2023/12/23 11:06:06;;;;;;;1.00;0.90;;;;;;;9.88;nan;99685.31;4947135;28;20480;-77
2023/12/23 11:08:33;;;;;;;1.23;0.70;;;;;;;9.85;nan;99680.22;4947516;28;20286;-76
2023/12/23 11:11:01;;;;;;;1.75;0.80;;;;;;;9.83;nan;99686.47;4949396;28;20287;-77
2023/12/23 11:13:27;;;;;;;0.80;0.70;;;;;;;9.86;nan;99675.84;4947126;28;20754;-77
2023/12/23 11:15:54;;;;;;;1.10;0.70;;;;;;;9.81;nan;99683.13;4949211;28;20207;-77
2023/12/23 11:18:21;;;;;;;0.75;0.68;;;;;;;9.84;nan;99669.84;4945421;28;20228;-77
2023/12/23 11:20:49;;;;;;;31.67;24.27;;;;;;;9.85;nan;99666.25;4948789;28;20200;-77
2023/12/23 11:23:27;;;;;;;2.58;2.08;;;;;;;9.84;nan;99675.06;4951344;28;20303;-77
2023/12/23 11:25:54;;;;;;;446.90;228.60;;;;;;;9.86;nan;99660.94;4960242;28;20615;-78
2023/12/23 11:28:20;;;;;;;1257.90;636.55;;;;;;;9.89;nan;99654.66;4955480;28;20200;-78
2023/12/23 11:30:50;;;;;;;181.98;126.10;;;;;;;9.92;nan;99659.72;4958183;28;20196;-78
2023/12/23 11:33:19;;;;;;;37.80;27.00;;;;;;;9.93;nan;99643.03;4958126;28;20996;-78
2023/12/23 11:35:48;;;;;;;6.18;5.30;;;;;;;9.95;nan;99665.63;4959037;28;20881;-78
2023/12/23 11:38:14;;;;;;;4.57;2.90;;;;;;;9.98;nan;99657.56;4959273;28;20228;-78
2023/12/23 11:40:39;;;;;;;1.40;1.30;;;;;;;10.03;nan;99640.69;4962570;28;20678;-77
2023/12/23 11:43:05;;;;;;;6.97;6.27;;;;;;;10.01;nan;99632.06;4967142;28;20196;-79
2023/12/23 11:45:31;;;;;;;5.10;4.70;;;;;;;10.02;nan;99649.50;4962513;28;20231;-78
2023/12/23 11:47:57;;;;;;;0.90;0.70;;;;;;;10.01;nan;99638.16;4942801;28;20212;-77
2023/12/23 11:50:22;;;;;;;0.80;0.70;;;;;;;9.98;nan;99651.47;4961235;28;20797;-77
2023/12/23 11:52:48;;;;;;;1.00;0.80;;;;;;;9.98;nan;99654.94;4954962;28;20211;-77
2023/12/23 11:55:15;;;;;;;1.37;0.77;;;;;;;9.98;nan;99654.94;4950178;28;20204;-78
2023/12/23 11:57:40;;;;;;;0.60;0.60;;;;;;;9.97;nan;99655.03;4945394;28;20669;-78
2023/12/23 12:00:07;;;;;;;1.10;0.83;;;;;;;9.96;nan;99650.72;4944062;28;20602;-77
2023/12/23 12:02:32;;;;;;;0.70;0.60;;;;;;;9.93;nan;99643.03;4947236;28;20204;-78
2023/12/23 12:04:58;;;;;;;13.67;5.70;;;;;;;9.92;nan;99644.81;4946716;28;20199;-78
2023/12/23 12:07:24;;;;;;;13.25;12.05;;;;;;;9.91;nan;99643.13;4945978;28;20858;-78
2023/12/23 12:09:50;;;;;;;1.53;1.43;;;;;;;9.95;nan;99625.41;4948331;28;20200;-77
2023/12/23 12:12:15;;;;;;;3.47;3.28;;;;;;;9.95;nan;99631.50;4955381;28;20451;-77
2023/12/23 12:14:41;;;;;;;2.03;1.50;;;;;;;9.94;nan;99636.88;4957188;28;20787;-77
2023/12/23 12:17:07;;;;;;;1.10;1.00;;;;;;;9.95;nan;99634.13;4956945;28;20392;-79
2023/12/23 12:19:33;;;;;;;1.55;0.88;;;;;;;9.94;nan;99642.94;4944430;28;20224;-77
2023/12/23 12:21:59;;;;;;;2.50;1.17;;;;;;;9.97;nan;99648.00;4944554;28;20200;-79
2023/12/23 12:24:25;;;;;;;2.90;2.10;;;;;;;9.91;nan;99656.25;4945134;28;20212;-75
2023/12/23 12:26:52;;;;;;;0.60;0.50;;;;;;;9.97;nan;99647.16;4949863;28;20464;-76
2023/12/23 12:29:21;;;;;;;1.10;0.90;;;;;;;9.95;nan;99649.03;4947304;28;20197;-75
2023/12/23 12:31:49;;;;;;;1.98;1.75;;;;;;;9.95;nan;99655.13;4949547;28;20223;-75
2023/12/23 12:34:15;;;;;;;2.20;0.80;;;;;;;9.95;nan;99649.88;4934222;28;20764;-75
2023/12/23 12:36:40;;;;;;;1.10;1.00;;;;;;;10.01;nan;99658.31;4943685;28;20278;-77
2023/12/23 12:39:06;;;;;;;1.37;0.77;;;;;;;9.97;nan;99648.00;4947264;28;20230;-78
2023/12/23 12:41:37;;;;;;;1.13;0.80;;;;;;;10.01;nan;99647.81;4937904;28;20350;-77
2023/12/23 12:44:03;;;;;;;2.15;1.50;;;;;;;9.98;nan;99647.06;4943001;28;20200;-77
2023/12/23 12:46:32;;;;;;;3.60;1.10;;;;;;;9.98;nan;99652.31;4942994;28;20658;-78
2023/12/23 12:49:00;;;;;;;2.20;2.00;;;;;;;9.94;nan;99650.81;4942224;28;21154;-76
2023/12/23 12:51:26;;;;;;;2.15;2.03;;;;;;;9.94;nan;99671.81;4945678;28;20200;-76
2023/12/23 12:53:52;;;;;;;1.10;0.90;;;;;;;9.94;nan;99668.34;4941834;28;20610;-75
2023/12/23 12:56:20;;;;;;;1.97;1.87;;;;;;;9.92;nan;99671.06;4946885;28;21143;-76
2023/12/23 12:58:46;;;;;;;1.60;1.50;;;;;;;9.92;nan;99671.06;4944100;28;20816;-76
2023/12/23 13:01:11;;;;;;;0.70;0.70;;;;;;;9.92;nan;99676.31;4943130;28;20200;-77
2023/12/23 13:03:37;;;;;;;0.80;0.80;;;;;;;9.91;nan;99679.00;4937232;28;20211;-77
2023/12/23 13:06:02;;;;;;;0.80;0.70;;;;;;;9.92;nan;99680.72;4947940;28;20893;-77
2023/12/23 13:08:28;;;;;;;1.90;1.20;;;;;;;9.92;nan;99686.78;4942607;28;20568;-75
2023/12/23 13:10:53;;;;;;;2.90;1.47;;;;;;;9.92;nan;99683.34;4947213;28;20211;-74